»·PEaware :: AAL455 KPDX-KSFO

AAL455 :: KPDX-KSFO

FLIGHT INFORMATION

Flight Status: Arrived
Operator:
American Airlines
More flights by this operator :: More flights under this callsign
Pilot: Marc M. (20543)
Aircraft: BOEING 767-300
(B763)
More flights by this aircraft type
Origin: KPDX Portland Intl
United States
Destination: KSFO San Francisco Intl
United States
More flights between these airports :: More routes between these airports
Route: +MLBEC BDEGA3
File this flight plan on PilotEdge
Remarks:
Altitude:
(Current/Filed)
33,000ft
Speed:
(Current/Filed)
450kts
Departed: 07-Aug-19 07:01 PM
Arrived: 07-Aug-19 08:51 PM
Distance/Time
Traveled:
478nm/1:49
Distance/Time
To Go:
Arrived

Flight Plot

Page will automatically refresh every two minutes.

Flight plan parsing failed; only flown route is shown


Map Options




Map Legend


Flown Route
Filed Route
Departure Airport
Arrival Airport
Navaid (VOR, NDB)
Fix

Horizontal Profiles

Position Reports

Time Latitude Longitude Heading Altitude Ground
Speed
07-Aug-19 18:37 45.586859 -122.593206 41 28ft 0kts
07-Aug-19 18:38 45.586859 -122.593207 41 28ft 0kts
07-Aug-19 18:39 45.586859 -122.593207 41 28ft 0kts
07-Aug-19 18:40 45.586859 -122.593207 41 28ft 0kts
07-Aug-19 18:41 45.586859 -122.593207 41 28ft 0kts
07-Aug-19 18:42 45.586859 -122.593207 41 28ft 0kts
07-Aug-19 18:43 45.586859 -122.593207 41 28ft 0kts
07-Aug-19 18:44 45.586859 -122.593207 41 28ft 0kts
07-Aug-19 18:45 45.586859 -122.593207 41 28ft 0kts
07-Aug-19 18:46 45.586859 -122.593207 41 28ft 0kts
07-Aug-19 18:47 45.586859 -122.593207 41 28ft 0kts
07-Aug-19 18:48 45.586859 -122.593207 41 28ft 0kts
07-Aug-19 18:49 45.586654 -122.593627 71 28ft 2kts
07-Aug-19 18:50 45.586685 -122.594424 117 28ft 2kts
07-Aug-19 18:51 45.586906 -122.594981 118 28ft 0kts
07-Aug-19 18:52 45.586906 -122.594981 118 28ft 0kts
07-Aug-19 18:53 45.586906 -122.594981 118 28ft 0kts
07-Aug-19 18:54 45.586906 -122.594981 118 28ft 0kts
07-Aug-19 18:55 45.586906 -122.594981 118 28ft 0kts
07-Aug-19 18:56 45.587416 -122.596445 297 26ft 16kts
07-Aug-19 18:57 45.590465 -122.605369 314 28ft 33kts
07-Aug-19 18:58 45.595315 -122.617049 296 28ft 34kts
07-Aug-19 18:59 45.595355 -122.621173 187 28ft 9kts
07-Aug-19 19:00 45.587728 -122.602405 118 193ft 192kts
07-Aug-19 19:01 45.553550 -122.527403 125 5436ft 271kts
07-Aug-19 19:02 45.511187 -122.440256 124 8133ft 273kts
07-Aug-19 19:03 45.467051 -122.348874 125 11507ft 326kts
07-Aug-19 19:04 45.413615 -122.238529 126 15064ft 359kts
07-Aug-19 19:05 45.331043 -122.188983 190 15020ft 346kts
07-Aug-19 19:06 45.266112 -122.282054 254 17157ft 364kts
07-Aug-19 19:07 45.241546 -122.423730 255 20784ft 380kts
07-Aug-19 19:08 45.218499 -122.557788 255 23647ft 395kts
07-Aug-19 19:09 45.197847 -122.713053 270 26401ft 414kts
07-Aug-19 19:10 45.201561 -122.876973 253 28838ft 424kts
07-Aug-19 19:11 45.134571 -123.010752 214 30920ft 436kts
07-Aug-19 19:12 45.022922 -123.054209 177 33033ft 439kts
07-Aug-19 19:13 44.906119 -123.045985 186 32997ft 418kts
07-Aug-19 19:14 44.790388 -123.069421 189 33001ft 420kts
07-Aug-19 19:15 44.675324 -123.095679 189 33029ft 421kts
07-Aug-19 19:16 44.559613 -123.122205 189 33046ft 423kts
07-Aug-19 19:17 44.443098 -123.133481 179 33048ft 423kts
07-Aug-19 19:18 44.325997 -123.129581 179 33044ft 422kts
07-Aug-19 19:20 44.208850 -123.125427 179 33043ft 422kts
07-Aug-19 19:21 44.091789 -123.121275 179 33042ft 422kts
07-Aug-19 19:22 43.974518 -123.117130 178 33041ft 422kts
07-Aug-19 19:23 43.857534 -123.113008 179 33049ft 422kts
07-Aug-19 19:24 43.740381 -123.108899 179 33048ft 422kts
07-Aug-19 19:25 43.623214 -123.104807 179 33047ft 422kts
07-Aug-19 19:26 43.508427 -123.100815 179 33045ft 421kts
07-Aug-19 19:27 43.391012 -123.096744 179 33045ft 422kts
07-Aug-19 19:28 43.273999 -123.092705 179 33044ft 422kts
07-Aug-19 19:29 43.157026 -123.088680 179 33043ft 421kts
07-Aug-19 19:30 43.040136 -123.084675 179 33042ft 421kts
07-Aug-19 19:31 42.923667 -123.080702 179 33026ft 416kts
07-Aug-19 19:32 42.808660 -123.076787 179 32980ft 415kts
07-Aug-19 19:33 42.693060 -123.072875 178 32901ft 416kts
07-Aug-19 19:34 42.577872 -123.068979 179 32914ft 412kts
07-Aug-19 19:35 42.463869 -123.065165 179 32918ft 411kts
07-Aug-19 19:36 42.384062 -123.062577 179 32916ft 411kts
07-Aug-19 19:37 42.250759 -123.058267 179 32914ft 411kts
07-Aug-19 19:37 42.148037 -123.054958 179 32914ft 410kts
07-Aug-19 19:39 42.014978 -123.050691 179 32915ft 411kts
07-Aug-19 19:40 41.903279 -123.047116 179 32920ft 410kts
07-Aug-19 19:40 41.808771 -123.044107 179 32941ft 411kts
07-Aug-19 19:41 41.694705 -123.040481 179 32947ft 411kts
07-Aug-19 19:43 41.561449 -123.036267 179 32945ft 411kts
07-Aug-19 19:43 41.466531 -123.033272 179 32944ft 411kts
07-Aug-19 19:44 41.352337 -123.029686 179 32944ft 411kts
07-Aug-19 19:45 41.238142 -123.026200 179 32942ft 411kts
07-Aug-19 19:46 41.147392 -123.023457 179 32941ft 411kts
07-Aug-19 19:47 41.059415 -123.020804 179 32912ft 412kts
07-Aug-19 19:48 40.905620 -123.016178 179 32839ft 414kts
07-Aug-19 19:49 40.792445 -123.012790 179 32847ft 414kts
07-Aug-19 19:50 40.677543 -123.009359 179 32846ft 414kts
07-Aug-19 19:51 40.562777 -123.005949 179 32845ft 414kts
07-Aug-19 19:52 40.447629 -123.002536 179 32844ft 413kts
07-Aug-19 19:53 40.332982 -122.999150 179 32843ft 413kts
07-Aug-19 19:54 40.218402 -122.995777 179 32847ft 413kts
07-Aug-19 19:55 40.103817 -122.992427 179 32864ft 412kts
07-Aug-19 19:56 39.989206 -122.989268 179 32904ft 411kts
07-Aug-19 19:57 39.874978 -122.986117 179 32914ft 411kts
07-Aug-19 19:58 39.760864 -122.982982 179 32941ft 411kts
07-Aug-19 19:59 39.647647 -122.979878 179 32887ft 400kts
07-Aug-19 20:00 39.535219 -122.976799 180 30159ft 412kts
07-Aug-19 20:01 39.420378 -122.973693 180 28997ft 420kts
07-Aug-19 20:02 39.303140 -122.970510 180 28979ft 421kts
07-Aug-19 20:03 39.186138 -122.967350 180 28978ft 421kts
07-Aug-19 20:04 39.069621 -122.964213 180 28978ft 421kts
07-Aug-19 20:05 38.952411 -122.961083 179 28961ft 422kts
07-Aug-19 20:06 38.845300 -122.949734 168 28587ft 370kts
07-Aug-19 20:07 38.746200 -122.920844 168 27399ft 386kts
07-Aug-19 20:08 38.642597 -122.890252 168 25829ft 381kts
07-Aug-19 20:09 38.542091 -122.860634 168 24267ft 369kts
07-Aug-19 20:10 38.444062 -122.831791 168 22669ft 360kts
07-Aug-19 20:11 38.357420 -122.806364 168 21313ft 351kts
07-Aug-19 20:12 38.261225 -122.778207 168 19776ft 342kts
07-Aug-19 20:13 38.168551 -122.751194 167 18159ft 338kts
07-Aug-19 20:14 38.078491 -122.725035 167 16795ft 328kts
07-Aug-19 20:15 37.990270 -122.699462 167 15879ft 321kts
07-Aug-19 20:16 37.913969 -122.637769 153 13852ft 339kts
07-Aug-19 20:17 37.829365 -122.594552 154 13000ft 322kts
07-Aug-19 20:18 37.758498 -122.523828 141 12291ft 324kts
07-Aug-19 20:19 37.689907 -122.451053 141 11016ft 316kts
07-Aug-19 20:20 37.621958 -122.378897 141 11019ft 321kts
07-Aug-19 20:21 37.545032 -122.325313 154 10995ft 306kts
07-Aug-19 20:22 37.470905 -122.276749 154 9753ft 304kts
07-Aug-19 20:23 37.395182 -122.226409 154 8070ft 314kts
07-Aug-19 20:24 37.328143 -122.157244 113 6279ft 330kts
07-Aug-19 20:25 37.340802 -122.056972 53 4669ft 335kts
07-Aug-19 20:26 37.401650 -121.979268 11 3996ft 293kts
07-Aug-19 20:27 37.466418 -122.013353 308 3980ft 232kts
07-Aug-19 20:28 37.495385 -122.077167 296 4019ft 203kts
07-Aug-19 20:29 37.521995 -122.137906 296 4021ft 205kts
07-Aug-19 20:30 37.546814 -122.198521 290 3590ft 200kts
07-Aug-19 20:31 37.568710 -122.260548 294 2882ft 191kts
07-Aug-19 20:32 37.588465 -122.310363 293 2985ft 147kts
07-Aug-19 20:33 37.607134 -122.354287 293 3279ft 167kts
07-Aug-19 20:34 37.630623 -122.413051 294 2887ft 191kts
07-Aug-19 20:35 37.654596 -122.472415 301 3025ft 191kts
07-Aug-19 20:36 37.699140 -122.501867 356 3038ft 202kts
07-Aug-19 20:37 37.741950 -122.466301 89 3027ft 211kts
07-Aug-19 20:38 37.725433 -122.403238 114 3020ft 210kts
07-Aug-19 20:39 37.706529 -122.338109 113 3021ft 208kts
07-Aug-19 20:40 37.686451 -122.269572 113 3020ft 207kts
07-Aug-19 20:41 37.668312 -122.208083 113 3024ft 205kts
07-Aug-19 20:42 37.651810 -122.152678 113 3027ft 204kts
07-Aug-19 20:43 37.623501 -122.099044 175 2597ft 203kts
07-Aug-19 20:44 37.567491 -122.123331 203 2009ft 188kts
07-Aug-19 20:45 37.538132 -122.168876 263 2048ft 187kts
07-Aug-19 20:46 37.557350 -122.229073 295 2026ft 182kts
07-Aug-19 20:47 37.578606 -122.279567 295 1453ft 148kts
07-Aug-19 20:48 37.595860 -122.320590 294 699ft 122kts
07-Aug-19 20:49 37.611792 -122.358567 294 85ft 123kts
07-Aug-19 20:50 37.621567 -122.381860 293 34ft 19kts
07-Aug-19 20:51 37.620864 -122.385080 273 34ft 11kts
07-Aug-19 20:52 37.620757 -122.386131 255 34ft 0kts
07-Aug-19 20:53 37.620757 -122.386130 255 34ft 0kts
07-Aug-19 20:54 37.620757 -122.386130 255 34ft 0kts

Navigation Log

Ident Type
Flight plan parsing failed, navigation log unavailable